sensor_id;sensor_type;location;lat;lon;timestamp;temperature;humidity
13074;DHT22;6603;47.066;15.396;2022-08-01T00:00:26;18.10;1.00
13074;DHT22;6603;47.066;15.396;2022-08-01T00:02:51;17.90;1.00
13074;DHT22;6603;47.066;15.396;2022-08-01T00:05:17;17.90;1.00
13074;DHT22;6603;47.066;15.396;2022-08-01T00:07:43;17.80;1.00
13074;DHT22;6603;47.066;15.396;2022-08-01T00:10:12;17.90;1.00
13074;DHT22;6603;47.066;15.396;2022-08-01T00:12:39;17.70;1.00
13074;DHT22;6603;47.066;15.396;2022-08-01T00:15:07;17.70;1.00
13074;DHT22;6603;47.066;15.396;2022-08-01T00:17:34;17.80;1.00
13074;DHT22;6603;47.066;15.396;2022-08-01T00:20:01;17.70;1.00
13074;DHT22;6603;47.066;15.396;2022-08-01T00:22:28;17.40;1.00
13074;DHT22;6603;47.066;15.396;2022-08-01T00:24:54;17.60;1.00
13074;DHT22;6603;47.066;15.396;2022-08-01T00:27:19;17.60;1.00
13074;DHT22;6603;47.066;15.396;2022-08-01T00:29:45;17.70;1.00
13074;DHT22;6603;47.066;15.396;2022-08-01T00:32:11;17.70;1.00
13074;DHT22;6603;47.066;15.396;2022-08-01T00:34:37;17.70;1.00
13074;DHT22;6603;47.066;15.396;2022-08-01T00:37:03;17.50;1.00
13074;DHT22;6603;47.066;15.396;2022-08-01T00:39:29;17.30;59.00
13074;DHT22;6603;47.066;15.396;2022-08-01T00:41:55;17.40;14.80
13074;DHT22;6603;47.066;15.396;2022-08-01T00:44:21;17.30;1.00
13074;DHT22;6603;47.066;15.396;2022-08-01T00:46:47;17.40;1.00
13074;DHT22;6603;47.066;15.396;2022-08-01T00:49:12;17.40;8.90
13074;DHT22;6603;47.066;15.396;2022-08-01T00:51:40;17.40;94.40
13074;DHT22;6603;47.066;15.396;2022-08-01T00:54:06;17.10;99.90
13074;DHT22;6603;47.066;15.396;2022-08-01T00:56:32;16.90;99.90
13074;DHT22;6603;47.066;15.396;2022-08-01T00:58:58;17.10;99.90
13074;DHT22;6603;47.066;15.396;2022-08-01T01:01:25;17.00;99.90
13074;DHT22;6603;47.066;15.396;2022-08-01T01:03:52;17.20;97.90
13074;DHT22;6603;47.066;15.396;2022-08-01T01:06:30;17.10;99.90
13074;DHT22;6603;47.066;15.396;2022-08-01T01:09:24;17.30;8.30
13074;DHT22;6603;47.066;15.396;2022-08-01T01:12:13;17.20;17.30
13074;DHT22;6603;47.066;15.396;2022-08-01T01:18:12;17.00;99.90
13074;DHT22;6603;47.066;15.396;2022-08-01T01:20:46;17.10;19.70
13074;DHT22;6603;47.066;15.396;2022-08-01T01:23:34;17.20;63.90
13074;DHT22;6603;47.066;15.396;2022-08-01T01:29:00;16.80;77.90
13074;DHT22;6603;47.066;15.396;2022-08-01T01:31:28;16.90;99.90
13074;DHT22;6603;47.066;15.396;2022-08-01T01:33:55;16.80;31.70
13074;DHT22;6603;47.066;15.396;2022-08-01T01:36:25;16.80;12.70
13074;DHT22;6603;47.066;15.396;2022-08-01T01:38:53;16.80;32.60
13074;DHT22;6603;47.066;15.396;2022-08-01T01:41:20;16.80;84.70
13074;DHT22;6603;47.066;15.396;2022-08-01T01:43:46;16.90;27.80
13074;DHT22;6603;47.066;15.396;2022-08-01T01:46:19;16.80;68.70
13074;DHT22;6603;47.066;15.396;2022-08-01T01:48:48;16.80;48.50
13074;DHT22;6603;47.066;15.396;2022-08-01T01:51:16;16.60;99.90
13074;DHT22;6603;47.066;15.396;2022-08-01T01:53:43;16.60;51.30
13074;DHT22;6603;47.066;15.396;2022-08-01T01:56:11;16.60;99.90
13074;DHT22;6603;47.066;15.396;2022-08-01T01:58:38;16.50;99.90
13074;DHT22;6603;47.066;15.396;2022-08-01T02:01:06;16.50;99.90
13074;DHT22;6603;47.066;15.396;2022-08-01T02:03:34;16.40;99.90
13074;DHT22;6603;47.066;15.396;2022-08-01T02:06:02;16.50;99.90
13074;DHT22;6603;47.066;15.396;2022-08-01T02:08:30;16.30;99.90
13074;DHT22;6603;47.066;15.396;2022-08-01T02:10:57;16.50;99.90
13074;DHT22;6603;47.066;15.396;2022-08-01T02:13:42;16.60;99.90
13074;DHT22;6603;47.066;15.396;2022-08-01T02:16:09;16.50;99.90
13074;DHT22;6603;47.066;15.396;2022-08-01T02:18:38;16.30;99.90
13074;DHT22;6603;47.066;15.396;2022-08-01T02:21:05;16.30;99.90
13074;DHT22;6603;47.066;15.396;2022-08-01T02:23:36;16.30;99.90
13074;DHT22;6603;47.066;15.396;2022-08-01T02:26:07;16.30;99.90
13074;DHT22;6603;47.066;15.396;2022-08-01T02:28:53;16.50;99.90
13074;DHT22;6603;47.066;15.396;2022-08-01T02:31:21;16.30;99.90
13074;DHT22;6603;47.066;15.396;2022-08-01T02:34:04;16.40;99.90
13074;DHT22;6603;47.066;15.396;2022-08-01T02:36:34;16.50;99.90
13074;DHT22;6603;47.066;15.396;2022-08-01T02:39:13;16.70;99.90
13074;DHT22;6603;47.066;15.396;2022-08-01T02:41:42;16.80;1.00
13074;DHT22;6603;47.066;15.396;2022-08-01T02:44:10;16.80;99.90
13074;DHT22;6603;47.066;15.396;2022-08-01T02:47:01;16.90;49.50
13074;DHT22;6603;47.066;15.396;2022-08-01T02:49:51;17.10;99.90
13074;DHT22;6603;47.066;15.396;2022-08-01T02:52:19;16.90;13.30
13074;DHT22;6603;47.066;15.396;2022-08-01T02:54:48;16.90;18.80
13074;DHT22;6603;47.066;15.396;2022-08-01T02:57:15;16.70;92.80
13074;DHT22;6603;47.066;15.396;2022-08-01T02:59:43;16.80;9.80
13074;DHT22;6603;47.066;15.396;2022-08-01T03:02:10;16.70;98.80
13074;DHT22;6603;47.066;15.396;2022-08-01T03:04:38;16.70;42.30
13074;DHT22;6603;47.066;15.396;2022-08-01T03:07:07;16.70;99.90
13074;DHT22;6603;47.066;15.396;2022-08-01T03:09:41;16.70;99.90
13074;DHT22;6603;47.066;15.396;2022-08-01T03:12:17;16.90;30.40
13074;DHT22;6603;47.066;15.396;2022-08-01T03:14:46;16.90;1.00
13074;DHT22;6603;47.066;15.396;2022-08-01T03:17:14;17.00;96.90
13074;DHT22;6603;47.066;15.396;2022-08-01T03:19:43;16.90;22.50
13074;DHT22;6603;47.066;15.396;2022-08-01T03:22:11;16.80;13.30
13074;DHT22;6603;47.066;15.396;2022-08-01T03:24:40;16.90;14.60
13074;DHT22;6603;47.066;15.396;2022-08-01T03:27:07;16.80;66.30
13074;DHT22;6603;47.066;15.396;2022-08-01T03:29:34;16.70;38.30
13074;DHT22;6603;47.066;15.396;2022-08-01T03:32:02;16.70;99.90
13074;DHT22;6603;47.066;15.396;2022-08-01T03:34:29;16.60;99.90
13074;DHT22;6603;47.066;15.396;2022-08-01T03:37:18;16.60;51.50
13074;DHT22;6603;47.066;15.396;2022-08-01T03:39:58;16.20;99.90
13074;DHT22;6603;47.066;15.396;2022-08-01T03:42:38;16.40;99.90
13074;DHT22;6603;47.066;15.396;2022-08-01T03:45:07;16.60;99.90
13074;DHT22;6603;47.066;15.396;2022-08-01T03:47:43;16.30;99.90
13074;DHT22;6603;47.066;15.396;2022-08-01T03:50:11;16.60;99.90
13074;DHT22;6603;47.066;15.396;2022-08-01T03:52:39;16.70;99.90
13074;DHT22;6603;47.066;15.396;2022-08-01T03:55:07;16.80;97.60
13074;DHT22;6603;47.066;15.396;2022-08-01T03:57:35;16.90;91.20
13074;DHT22;6603;47.066;15.396;2022-08-01T04:00:04;16.80;99.90
13074;DHT22;6603;47.066;15.396;2022-08-01T04:02:35;16.90;93.60
13074;DHT22;6603;47.066;15.396;2022-08-01T04:05:03;16.70;78.90
13074;DHT22;6603;47.066;15.396;2022-08-01T04:07:30;16.50;99.90
13074;DHT22;6603;47.066;15.396;2022-08-01T04:09:56;16.70;99.90
13074;DHT22;6603;47.066;15.396;2022-08-01T04:12:23;16.60;95.90
13074;DHT22;6603;47.066;15.396;2022-08-01T04:14:49;16.40;99.90
13074;DHT22;6603;47.066;15.396;2022-08-01T04:17:18;16.60;99.90
13074;DHT22;6603;47.066;15.396;2022-08-01T04:19:44;16.60;99.90
13074;DHT22;6603;47.066;15.396;2022-08-01T04:22:12;16.40;99.90
13074;DHT22;6603;47.066;15.396;2022-08-01T04:24:39;16.20;99.90
13074;DHT22;6603;47.066;15.396;2022-08-01T04:27:13;16.30;99.90
13074;DHT22;6603;47.066;15.396;2022-08-01T04:29:40;16.60;99.90
13074;DHT22;6603;47.066;15.396;2022-08-01T04:32:10;16.50;99.90
13074;DHT22;6603;47.066;15.396;2022-08-01T04:34:39;16.50;99.90
13074;DHT22;6603;47.066;15.396;2022-08-01T04:37:09;16.70;99.90
13074;DHT22;6603;47.066;15.396;2022-08-01T04:39:37;16.80;99.90
13074;DHT22;6603;47.066;15.396;2022-08-01T04:42:05;16.80;87.90
13074;DHT22;6603;47.066;15.396;2022-08-01T04:44:33;16.90;99.90
13074;DHT22;6603;47.066;15.396;2022-08-01T04:47:03;16.80;91.20
13074;DHT22;6603;47.066;15.396;2022-08-01T04:49:31;16.80;99.90
13074;DHT22;6603;47.066;15.396;2022-08-01T04:51:58;16.70;99.90
13074;DHT22;6603;47.066;15.396;2022-08-01T04:54:30;17.00;99.90
13074;DHT22;6603;47.066;15.396;2022-08-01T04:56:59;17.10;69.00
13074;DHT22;6603;47.066;15.396;2022-08-01T04:59:29;16.90;99.90
13074;DHT22;6603;47.066;15.396;2022-08-01T05:02:10;17.20;23.90
13074;DHT22;6603;47.066;15.396;2022-08-01T05:04:36;17.50;1.00
13074;DHT22;6603;47.066;15.396;2022-08-01T05:07:04;17.70;12.00
13074;DHT22;6603;47.066;15.396;2022-08-01T05:09:30;17.90;1.00
13074;DHT22;6603;47.066;15.396;2022-08-01T05:11:58;18.10;1.00
13074;DHT22;6603;47.066;15.396;2022-08-01T05:14:25;18.30;1.00
13074;DHT22;6603;47.066;15.396;2022-08-01T05:16:51;18.50;1.00
13074;DHT22;6603;47.066;15.396;2022-08-01T05:19:18;18.60;1.00
13074;DHT22;6603;47.066;15.396;2022-08-01T05:21:44;18.70;1.00
13074;DHT22;6603;47.066;15.396;2022-08-01T05:24:09;18.80;63.90
13074;DHT22;6603;47.066;15.396;2022-08-01T05:26:36;18.80;1.00
13074;DHT22;6603;47.066;15.396;2022-08-01T05:29:02;18.80;1.00
13074;DHT22;6603;47.066;15.396;2022-08-01T05:31:28;18.80;99.90
13074;DHT22;6603;47.066;15.396;2022-08-01T05:33:54;18.80;1.00
13074;DHT22;6603;47.066;15.396;2022-08-01T05:36:19;18.80;1.00
13074;DHT22;6603;47.066;15.396;2022-08-01T05:38:45;18.60;1.00
13074;DHT22;6603;47.066;15.396;2022-08-01T05:41:11;18.60;1.00
13074;DHT22;6603;47.066;15.396;2022-08-01T05:43:37;18.70;1.00
13074;DHT22;6603;47.066;15.396;2022-08-01T05:46:03;18.50;1.00
13074;DHT22;6603;47.066;15.396;2022-08-01T05:48:28;18.50;1.00
13074;DHT22;6603;47.066;15.396;2022-08-01T05:50:55;18.50;1.00
13074;DHT22;6603;47.066;15.396;2022-08-01T05:53:21;18.50;1.00
13074;DHT22;6603;47.066;15.396;2022-08-01T05:55:47;18.60;1.00
13074;DHT22;6603;47.066;15.396;2022-08-01T05:58:13;18.60;1.00
13074;DHT22;6603;47.066;15.396;2022-08-01T06:00:39;18.60;1.00
13074;DHT22;6603;47.066;15.396;2022-08-01T06:03:05;18.60;1.00
13074;DHT22;6603;47.066;15.396;2022-08-01T06:05:30;18.70;1.00
13074;DHT22;6603;47.066;15.396;2022-08-01T06:07:56;18.80;99.90
13074;DHT22;6603;47.066;15.396;2022-08-01T06:10:24;18.80;96.50
13074;DHT22;6603;47.066;15.396;2022-08-01T06:12:49;18.80;99.90
13074;DHT22;6603;47.066;15.396;2022-08-01T06:15:15;18.70;1.00
13074;DHT22;6603;47.066;15.396;2022-08-01T06:17:41;18.50;99.90
13074;DHT22;6603;47.066;15.396;2022-08-01T06:20:07;18.70;1.00
13074;DHT22;6603;47.066;15.396;2022-08-01T06:22:33;18.90;1.00
13074;DHT22;6603;47.066;15.396;2022-08-01T06:24:59;19.10;36.10
13074;DHT22;6603;47.066;15.396;2022-08-01T06:27:25;19.20;41.70
13074;DHT22;6603;47.066;15.396;2022-08-01T06:29:52;19.40;1.00
13074;DHT22;6603;47.066;15.396;2022-08-01T06:32:22;19.50;1.00
13074;DHT22;6603;47.066;15.396;2022-08-01T06:34:48;19.60;1.00
13074;DHT22;6603;47.066;15.396;2022-08-01T06:37:14;19.70;1.00
13074;DHT22;6603;47.066;15.396;2022-08-01T06:39:41;19.70;1.00
13074;DHT22;6603;47.066;15.396;2022-08-01T06:42:07;19.80;99.90
13074;DHT22;6603;47.066;15.396;2022-08-01T06:44:33;19.80;1.00
13074;DHT22;6603;47.066;15.396;2022-08-01T06:46:58;19.90;85.90
13074;DHT22;6603;47.066;15.396;2022-08-01T06:49:24;19.90;99.90
13074;DHT22;6603;47.066;15.396;2022-08-01T06:51:50;20.00;99.90
13074;DHT22;6603;47.066;15.396;2022-08-01T06:54:16;20.00;3.10
13074;DHT22;6603;47.066;15.396;2022-08-01T06:56:42;20.10;1.00
13074;DHT22;6603;47.066;15.396;2022-08-01T06:59:09;20.20;1.00
13074;DHT22;6603;47.066;15.396;2022-08-01T07:01:34;20.30;1.00
13074;DHT22;6603;47.066;15.396;2022-08-01T07:04:00;20.50;1.00
13074;DHT22;6603;47.066;15.396;2022-08-01T07:06:26;20.60;1.00
13074;DHT22;6603;47.066;15.396;2022-08-01T07:08:53;20.60;1.00
13074;DHT22;6603;47.066;15.396;2022-08-01T07:11:20;20.70;1.00
13074;DHT22;6603;47.066;15.396;2022-08-01T07:13:46;20.80;1.00
13074;DHT22;6603;47.066;15.396;2022-08-01T07:16:13;20.90;1.00
13074;DHT22;6603;47.066;15.396;2022-08-01T07:18:40;20.90;1.00
13074;DHT22;6603;47.066;15.396;2022-08-01T07:21:07;20.70;99.90
13074;DHT22;6603;47.066;15.396;2022-08-01T07:23:34;20.90;99.90
13074;DHT22;6603;47.066;15.396;2022-08-01T07:26:00;21.00;1.00
13074;DHT22;6603;47.066;15.396;2022-08-01T07:28:27;21.20;99.90
13074;DHT22;6603;47.066;15.396;2022-08-01T07:30:53;21.70;1.00
13074;DHT22;6603;47.066;15.396;2022-08-01T07:33:19;22.00;1.00
13074;DHT22;6603;47.066;15.396;2022-08-01T07:35:45;22.30;99.90
13074;DHT22;6603;47.066;15.396;2022-08-01T07:38:11;22.60;1.00
13074;DHT22;6603;47.066;15.396;2022-08-01T07:40:37;22.80;1.00
13074;DHT22;6603;47.066;15.396;2022-08-01T07:43:03;23.00;99.90
13074;DHT22;6603;47.066;15.396;2022-08-01T07:45:30;22.80;1.00
13074;DHT22;6603;47.066;15.396;2022-08-01T07:47:56;23.20;1.00
13074;DHT22;6603;47.066;15.396;2022-08-01T07:50:22;23.60;1.00
13074;DHT22;6603;47.066;15.396;2022-08-01T07:52:48;23.60;99.90
13074;DHT22;6603;47.066;15.396;2022-08-01T07:55:14;24.00;99.90
13074;DHT22;6603;47.066;15.396;2022-08-01T07:57:39;24.40;99.90
13074;DHT22;6603;47.066;15.396;2022-08-01T08:00:06;24.40;99.90
13074;DHT22;6603;47.066;15.396;2022-08-01T08:02:33;24.70;99.90
13074;DHT22;6603;47.066;15.396;2022-08-01T08:04:59;25.00;99.90
13074;DHT22;6603;47.066;15.396;2022-08-01T08:07:25;25.20;96.60
13074;DHT22;6603;47.066;15.396;2022-08-01T08:09:51;25.50;56.40
13074;DHT22;6603;47.066;15.396;2022-08-01T08:12:17;25.60;1.00
13074;DHT22;6603;47.066;15.396;2022-08-01T08:14:42;25.70;1.00
13074;DHT22;6603;47.066;15.396;2022-08-01T08:17:08;26.20;19.70
13074;DHT22;6603;47.066;15.396;2022-08-01T08:19:34;26.40;1.00
13074;DHT22;6603;47.066;15.396;2022-08-01T08:22:03;26.90;1.00
13074;DHT22;6603;47.066;15.396;2022-08-01T08:24:28;26.80;1.00
13074;DHT22;6603;47.066;15.396;2022-08-01T08:26:57;26.50;1.00
13074;DHT22;6603;47.066;15.396;2022-08-01T08:29:24;26.60;1.00
13074;DHT22;6603;47.066;15.396;2022-08-01T08:31:52;26.40;1.00
13074;DHT22;6603;47.066;15.396;2022-08-01T08:34:19;26.60;1.00
13074;DHT22;6603;47.066;15.396;2022-08-01T08:36:45;26.60;1.00
13074;DHT22;6603;47.066;15.396;2022-08-01T08:39:10;26.20;1.00
13074;DHT22;6603;47.066;15.396;2022-08-01T08:41:36;26.00;1.00
13074;DHT22;6603;47.066;15.396;2022-08-01T08:44:07;25.80;1.00
13074;DHT22;6603;47.066;15.396;2022-08-01T08:46:34;25.70;1.00
13074;DHT22;6603;47.066;15.396;2022-08-01T08:49:05;25.40;1.00
13074;DHT22;6603;47.066;15.396;2022-08-01T08:51:34;25.50;1.00
13074;DHT22;6603;47.066;15.396;2022-08-01T08:54:00;25.50;1.00
13074;DHT22;6603;47.066;15.396;2022-08-01T08:56:28;25.70;1.00
13074;DHT22;6603;47.066;15.396;2022-08-01T08:58:59;25.80;1.00
13074;DHT22;6603;47.066;15.396;2022-08-01T09:01:26;25.90;1.00
13074;DHT22;6603;47.066;15.396;2022-08-01T09:03:52;26.10;1.00
13074;DHT22;6603;47.066;15.396;2022-08-01T09:06:18;26.10;1.00
13074;DHT22;6603;47.066;15.396;2022-08-01T09:08:44;26.20;1.00
13074;DHT22;6603;47.066;15.396;2022-08-01T09:11:11;26.60;1.00
13074;DHT22;6603;47.066;15.396;2022-08-01T09:13:37;26.60;1.00
13074;DHT22;6603;47.066;15.396;2022-08-01T09:16:05;26.50;1.00
13074;DHT22;6603;47.066;15.396;2022-08-01T09:18:40;26.80;1.00
13074;DHT22;6603;47.066;15.396;2022-08-01T09:23:32;27.20;1.00
13074;DHT22;6603;47.066;15.396;2022-08-01T09:25:59;27.50;1.00
13074;DHT22;6603;47.066;15.396;2022-08-01T09:28:29;27.50;1.00
13074;DHT22;6603;47.066;15.396;2022-08-01T09:30:58;27.40;1.00
13074;DHT22;6603;47.066;15.396;2022-08-01T09:33:24;27.20;1.00
13074;DHT22;6603;47.066;15.396;2022-08-01T09:35:55;27.20;1.00
13074;DHT22;6603;47.066;15.396;2022-08-01T09:38:26;27.10;1.00
13074;DHT22;6603;47.066;15.396;2022-08-01T09:40:54;27.10;1.00
13074;DHT22;6603;47.066;15.396;2022-08-01T09:43:23;27.40;1.00
13074;DHT22;6603;47.066;15.396;2022-08-01T09:45:50;27.60;1.00
13074;DHT22;6603;47.066;15.396;2022-08-01T09:48:17;27.90;1.00
13074;DHT22;6603;47.066;15.396;2022-08-01T09:50:48;28.40;1.00
13074;DHT22;6603;47.066;15.396;2022-08-01T09:53:15;28.60;1.00
13074;DHT22;6603;47.066;15.396;2022-08-01T09:55:42;28.50;1.00
13074;DHT22;6603;47.066;15.396;2022-08-01T09:58:08;28.30;1.00
13074;DHT22;6603;47.066;15.396;2022-08-01T10:00:37;28.60;1.00
13074;DHT22;6603;47.066;15.396;2022-08-01T10:03:25;28.60;1.00
13074;DHT22;6603;47.066;15.396;2022-08-01T10:05:52;29.00;1.00
13074;DHT22;6603;47.066;15.396;2022-08-01T10:08:19;29.40;1.00
13074;DHT22;6603;47.066;15.396;2022-08-01T10:11:06;29.80;1.00
13074;DHT22;6603;47.066;15.396;2022-08-01T10:13:33;29.90;1.00
13074;DHT22;6603;47.066;15.396;2022-08-01T10:16:00;30.10;1.00
13074;DHT22;6603;47.066;15.396;2022-08-01T10:18:28;29.70;1.00
13074;DHT22;6603;47.066;15.396;2022-08-01T10:20:56;29.40;1.00
13074;DHT22;6603;47.066;15.396;2022-08-01T10:23:27;29.20;1.00
13074;DHT22;6603;47.066;15.396;2022-08-01T10:25:56;28.70;1.00
13074;DHT22;6603;47.066;15.396;2022-08-01T10:28:25;28.50;1.00
13074;DHT22;6603;47.066;15.396;2022-08-01T10:30:51;28.20;1.00
13074;DHT22;6603;47.066;15.396;2022-08-01T10:33:18;28.10;1.00
13074;DHT22;6603;47.066;15.396;2022-08-01T10:35:47;27.90;1.00
13074;DHT22;6603;47.066;15.396;2022-08-01T10:38:13;27.70;1.00
13074;DHT22;6603;47.066;15.396;2022-08-01T10:40:41;28.20;1.00
13074;DHT22;6603;47.066;15.396;2022-08-01T10:43:10;28.30;1.00
13074;DHT22;6603;47.066;15.396;2022-08-01T10:45:37;28.80;1.00
13074;DHT22;6603;47.066;15.396;2022-08-01T10:48:12;29.20;1.00
13074;DHT22;6603;47.066;15.396;2022-08-01T10:50:41;29.60;1.00
13074;DHT22;6603;47.066;15.396;2022-08-01T10:53:17;29.80;1.00
13074;DHT22;6603;47.066;15.396;2022-08-01T10:55:51;30.10;1.00
13074;DHT22;6603;47.066;15.396;2022-08-01T10:58:38;30.40;1.00
13074;DHT22;6603;47.066;15.396;2022-08-01T11:01:16;30.90;1.00
13074;DHT22;6603;47.066;15.396;2022-08-01T11:03:45;31.50;1.00
13074;DHT22;6603;47.066;15.396;2022-08-01T11:08:59;31.50;1.00
13074;DHT22;6603;47.066;15.396;2022-08-01T11:11:25;30.60;1.00
13074;DHT22;6603;47.066;15.396;2022-08-01T11:14:01;29.90;1.00
13074;DHT22;6603;47.066;15.396;2022-08-01T11:16:34;29.50;1.00
13074;DHT22;6603;47.066;15.396;2022-08-01T11:19:01;29.20;1.00
13074;DHT22;6603;47.066;15.396;2022-08-01T11:27:32;29.00;1.00
13074;DHT22;6603;47.066;15.396;2022-08-01T11:35:16;29.80;1.00
13074;DHT22;6603;47.066;15.396;2022-08-01T11:37:43;29.70;1.00
13074;DHT22;6603;47.066;15.396;2022-08-01T11:42:50;29.40;1.00
13074;DHT22;6603;47.066;15.396;2022-08-01T11:45:48;29.50;1.00
13074;DHT22;6603;47.066;15.396;2022-08-01T11:48:36;30.20;1.00
13074;DHT22;6603;47.066;15.396;2022-08-01T11:51:02;30.80;1.00
13074;DHT22;6603;47.066;15.396;2022-08-01T11:53:27;31.00;1.00
13074;DHT22;6603;47.066;15.396;2022-08-01T11:55:55;30.70;99.90
13074;DHT22;6603;47.066;15.396;2022-08-01T11:58:24;31.30;1.00
13074;DHT22;6603;47.066;15.396;2022-08-01T12:00:56;31.50;99.90
13074;DHT22;6603;47.066;15.396;2022-08-01T12:03:27;31.70;99.90
13074;DHT22;6603;47.066;15.396;2022-08-01T12:05:56;31.50;99.90
13074;DHT22;6603;47.066;15.396;2022-08-01T12:08:26;32.00;99.90
13074;DHT22;6603;47.066;15.396;2022-08-01T12:10:52;31.60;99.90
13074;DHT22;6603;47.066;15.396;2022-08-01T12:13:18;31.80;99.90
13074;DHT22;6603;47.066;15.396;2022-08-01T12:15:45;31.70;99.90
13074;DHT22;6603;47.066;15.396;2022-08-01T12:18:12;31.70;99.90
13074;DHT22;6603;47.066;15.396;2022-08-01T12:20:40;31.90;99.90
13074;DHT22;6603;47.066;15.396;2022-08-01T12:23:08;32.00;99.90
13074;DHT22;6603;47.066;15.396;2022-08-01T12:25:35;32.00;99.90
13074;DHT22;6603;47.066;15.396;2022-08-01T12:28:05;32.50;99.90
13074;DHT22;6603;47.066;15.396;2022-08-01T12:30:33;32.50;99.90
13074;DHT22;6603;47.066;15.396;2022-08-01T12:33:02;32.60;99.90
13074;DHT22;6603;47.066;15.396;2022-08-01T12:35:29;32.40;99.90
13074;DHT22;6603;47.066;15.396;2022-08-01T12:38:02;31.50;99.90
13074;DHT22;6603;47.066;15.396;2022-08-01T12:40:34;31.30;99.90
13074;DHT22;6603;47.066;15.396;2022-08-01T12:43:05;31.50;99.90
13074;DHT22;6603;47.066;15.396;2022-08-01T12:45:38;31.60;99.90
13074;DHT22;6603;47.066;15.396;2022-08-01T12:48:13;31.40;99.90
13074;DHT22;6603;47.066;15.396;2022-08-01T12:50:41;31.00;99.90
13074;DHT22;6603;47.066;15.396;2022-08-01T12:53:11;30.80;99.90
13074;DHT22;6603;47.066;15.396;2022-08-01T12:55:51;31.30;99.90
13074;DHT22;6603;47.066;15.396;2022-08-01T12:58:18;32.20;99.90
13074;DHT22;6603;47.066;15.396;2022-08-01T13:00:46;32.30;99.90
13074;DHT22;6603;47.066;15.396;2022-08-01T13:03:20;31.80;99.90
13074;DHT22;6603;47.066;15.396;2022-08-01T13:05:54;31.00;99.90
13074;DHT22;6603;47.066;15.396;2022-08-01T13:08:40;30.60;99.90
13074;DHT22;6603;47.066;15.396;2022-08-01T13:11:08;30.30;99.90
13074;DHT22;6603;47.066;15.396;2022-08-01T13:13:39;31.10;99.90
13074;DHT22;6603;47.066;15.396;2022-08-01T13:16:06;31.80;99.90
13074;DHT22;6603;47.066;15.396;2022-08-01T13:18:34;31.60;99.90
13074;DHT22;6603;47.066;15.396;2022-08-01T13:21:14;31.00;99.90
13074;DHT22;6603;47.066;15.396;2022-08-01T13:24:15;30.60;99.90
13074;DHT22;6603;47.066;15.396;2022-08-01T13:29:04;30.10;99.90
13074;DHT22;6603;47.066;15.396;2022-08-01T13:31:35;30.10;99.90
13074;DHT22;6603;47.066;15.396;2022-08-01T13:34:02;30.50;99.90
13074;DHT22;6603;47.066;15.396;2022-08-01T13:36:28;31.30;99.90
13074;DHT22;6603;47.066;15.396;2022-08-01T13:38:54;31.60;99.90
13074;DHT22;6603;47.066;15.396;2022-08-01T13:41:39;31.30;99.90
13074;DHT22;6603;47.066;15.396;2022-08-01T13:44:05;31.10;99.90
13074;DHT22;6603;47.066;15.396;2022-08-01T13:46:31;30.90;99.90
13074;DHT22;6603;47.066;15.396;2022-08-01T13:48:57;30.80;99.90
13074;DHT22;6603;47.066;15.396;2022-08-01T13:51:23;30.50;99.90
13074;DHT22;6603;47.066;15.396;2022-08-01T13:53:49;30.40;99.90
13074;DHT22;6603;47.066;15.396;2022-08-01T13:56:14;30.30;99.90
13074;DHT22;6603;47.066;15.396;2022-08-01T13:58:44;30.00;99.90
13074;DHT22;6603;47.066;15.396;2022-08-01T14:01:10;29.90;99.90
13074;DHT22;6603;47.066;15.396;2022-08-01T14:03:35;29.90;99.90
13074;DHT22;6603;47.066;15.396;2022-08-01T14:06:02;29.90;99.90
13074;DHT22;6603;47.066;15.396;2022-08-01T14:08:28;30.00;99.90
13074;DHT22;6603;47.066;15.396;2022-08-01T14:10:54;30.10;99.90
13074;DHT22;6603;47.066;15.396;2022-08-01T14:13:23;30.00;99.90
13074;DHT22;6603;47.066;15.396;2022-08-01T14:15:49;30.10;99.90
13074;DHT22;6603;47.066;15.396;2022-08-01T14:18:16;30.10;99.90
13074;DHT22;6603;47.066;15.396;2022-08-01T14:20:42;30.20;99.90
13074;DHT22;6603;47.066;15.396;2022-08-01T14:23:09;30.30;99.90
13074;DHT22;6603;47.066;15.396;2022-08-01T14:25:39;30.50;99.90
13074;DHT22;6603;47.066;15.396;2022-08-01T14:28:05;30.20;99.90
13074;DHT22;6603;47.066;15.396;2022-08-01T14:30:32;30.20;99.90
13074;DHT22;6603;47.066;15.396;2022-08-01T14:32:59;29.90;99.90
13074;DHT22;6603;47.066;15.396;2022-08-01T14:35:25;29.90;99.90
13074;DHT22;6603;47.066;15.396;2022-08-01T14:37:51;30.10;99.90
13074;DHT22;6603;47.066;15.396;2022-08-01T14:40:18;30.20;99.90
13074;DHT22;6603;47.066;15.396;2022-08-01T14:42:43;30.20;99.90
13074;DHT22;6603;47.066;15.396;2022-08-01T14:45:11;30.00;99.90
13074;DHT22;6603;47.066;15.396;2022-08-01T14:47:38;30.10;99.90
13074;DHT22;6603;47.066;15.396;2022-08-01T14:50:06;29.90;99.90
13074;DHT22;6603;47.066;15.396;2022-08-01T14:52:33;29.90;99.90
13074;DHT22;6603;47.066;15.396;2022-08-01T14:55:00;30.00;99.90
13074;DHT22;6603;47.066;15.396;2022-08-01T14:57:26;30.00;99.90
13074;DHT22;6603;47.066;15.396;2022-08-01T14:59:52;30.10;99.90
13074;DHT22;6603;47.066;15.396;2022-08-01T15:02:18;30.10;99.90
13074;DHT22;6603;47.066;15.396;2022-08-01T15:04:45;30.10;99.90
13074;DHT22;6603;47.066;15.396;2022-08-01T15:07:11;30.20;99.90
13074;DHT22;6603;47.066;15.396;2022-08-01T15:09:37;30.20;99.90
13074;DHT22;6603;47.066;15.396;2022-08-01T15:12:04;30.30;99.90
13074;DHT22;6603;47.066;15.396;2022-08-01T15:14:30;30.50;99.90
13074;DHT22;6603;47.066;15.396;2022-08-01T15:17:24;30.50;99.90
13074;DHT22;6603;47.066;15.396;2022-08-01T15:19:54;30.70;99.90
13074;DHT22;6603;47.066;15.396;2022-08-01T15:22:21;31.00;99.90
13074;DHT22;6603;47.066;15.396;2022-08-01T15:24:49;31.20;99.90
13074;DHT22;6603;47.066;15.396;2022-08-01T15:27:15;31.10;99.90
13074;DHT22;6603;47.066;15.396;2022-08-01T15:29:41;31.20;99.90
13074;DHT22;6603;47.066;15.396;2022-08-01T15:32:07;31.60;99.90
13074;DHT22;6603;47.066;15.396;2022-08-01T15:34:34;31.90;99.90
13074;DHT22;6603;47.066;15.396;2022-08-01T15:37:01;32.10;99.90
13074;DHT22;6603;47.066;15.396;2022-08-01T15:39:27;32.00;99.90
13074;DHT22;6603;47.066;15.396;2022-08-01T15:41:53;32.00;99.90
13074;DHT22;6603;47.066;15.396;2022-08-01T15:44:19;32.00;99.90
13074;DHT22;6603;47.066;15.396;2022-08-01T15:46:50;31.90;99.90
13074;DHT22;6603;47.066;15.396;2022-08-01T15:49:17;32.00;99.90
13074;DHT22;6603;47.066;15.396;2022-08-01T15:51:43;31.10;99.90
13074;DHT22;6603;47.066;15.396;2022-08-01T15:54:11;30.10;99.90
13074;DHT22;6603;47.066;15.396;2022-08-01T15:56:37;29.80;99.90
13074;DHT22;6603;47.066;15.396;2022-08-01T15:59:04;29.70;99.90
13074;DHT22;6603;47.066;15.396;2022-08-01T16:01:30;30.70;99.90
13074;DHT22;6603;47.066;15.396;2022-08-01T16:03:58;30.40;99.90
13074;DHT22;6603;47.066;15.396;2022-08-01T16:06:24;30.30;99.90
13074;DHT22;6603;47.066;15.396;2022-08-01T16:08:51;30.80;99.90
13074;DHT22;6603;47.066;15.396;2022-08-01T16:11:17;31.40;99.90
13074;DHT22;6603;47.066;15.396;2022-08-01T16:13:44;32.20;99.90